VXP323 KHVN-KFLL
Flight info
| Callsign | VXP323 |
|---|---|
| Flight time | N/A |
| Altitude | 38000 |
| Route | BEADS EMJAY Q167 ZJAAY Q97 PRMUS CUUDA3 |
| Aircraft | B738/M-SDE2E3FGHIRWXY/LB1 |
Departure
| Time | 2026-05-09 10:17 |
|---|---|
| Airport | Tweed New Haven Airport (KHVN) |
Arrival
| Time | N/A |
|---|---|
| Airport | Fort Lauderdale Hollywood International Airport (KFLL) |
| Time | Latitude | Longitude | Altitude | Speed | Heading |
|---|---|---|---|---|---|
| 2026-05-09 09:45 | 41.26857 | -72.89077 | 16 ft | 0 kts | 311° |
| 2026-05-09 10:10 | 41.26851 | -72.89067 | 17 ft | 4 kts | 311° |
| 2026-05-09 10:10 | 41.26833 | -72.89040 | 16 ft | 4 kts | 311° |
| 2026-05-09 10:10 | 41.26818 | -72.89018 | 16 ft | 3 kts | 309° |
| 2026-05-09 10:10 | 41.26811 | -72.88993 | 16 ft | 4 kts | 241° |
| 2026-05-09 10:11 | 41.26827 | -72.88969 | 16 ft | 4 kts | 220° |
| 2026-05-09 10:11 | 41.26846 | -72.88947 | 15 ft | 2 kts | 220° |
| 2026-05-09 10:11 | 41.26847 | -72.88946 | 15 ft | 0 kts | 220° |
| 2026-05-09 10:13 | 41.26839 | -72.88955 | 18 ft | 4 kts | 220° |
| 2026-05-09 10:13 | 41.26791 | -72.88964 | 16 ft | 11 kts | 148° |
| 2026-05-09 10:13 | 41.26726 | -72.88871 | 15 ft | 16 kts | 132° |
| 2026-05-09 10:13 | 41.26645 | -72.88768 | 13 ft | 16 kts | 159° |
| 2026-05-09 10:14 | 41.26536 | -72.88763 | 14 ft | 15 kts | 183° |
| 2026-05-09 10:14 | 41.26432 | -72.88770 | 16 ft | 15 kts | 182° |
| 2026-05-09 10:14 | 41.26331 | -72.88776 | 15 ft | 14 kts | 182° |
| 2026-05-09 10:14 | 41.26237 | -72.88783 | 19 ft | 14 kts | 183° |
| 2026-05-09 10:15 | 41.26145 | -72.88789 | 18 ft | 13 kts | 182° |
| 2026-05-09 10:15 | 41.26035 | -72.88795 | 18 ft | 19 kts | 182° |
| 2026-05-09 10:15 | 41.25903 | -72.88802 | 18 ft | 19 kts | 182° |
| 2026-05-09 10:15 | 41.25775 | -72.88808 | 17 ft | 18 kts | 181° |
| 2026-05-09 10:16 | 41.25654 | -72.88803 | 16 ft | 15 kts | 174° |
| 2026-05-09 10:16 | 41.25616 | -72.88813 | 16 ft | 3 kts | 243° |
| 2026-05-09 10:16 | 41.25632 | -72.88827 | 16 ft | 4 kts | 7° |
| 2026-05-09 10:16 | 41.25812 | -72.88811 | 18 ft | 65 kts | 3° |
| 2026-05-09 10:17 | 41.26547 | -72.88760 | 15 ft | 143 kts | 4° |
| 2026-05-09 10:17 | 41.27605 | -72.88698 | 638 ft | 155 kts | 3° |
| 2026-05-09 10:17 | 41.28750 | -72.88384 | 1103 ft | 190 kts | 34° |
| 2026-05-09 10:17 | 41.29433 | -72.86900 | 1867 ft | 200 kts | 82° |
| 2026-05-09 10:18 | 41.29142 | -72.85020 | 2230 ft | 220 kts | 124° |
| 2026-05-09 10:18 | 41.27982 | -72.83670 | 2780 ft | 228 kts | 149° |
| 2026-05-09 10:18 | 41.26482 | -72.82730 | 3287 ft | 244 kts | 159° |
| 2026-05-09 10:18 | 41.24875 | -72.81910 | 4075 ft | 250 kts | 162° |
| 2026-05-09 10:19 | 41.23223 | -72.81078 | 4786 ft | 259 kts | 162° |
| 2026-05-09 10:19 | 41.21510 | -72.80203 | 5527 ft | 267 kts | 163° |
| 2026-05-09 10:19 | 41.19777 | -72.79305 | 6375 ft | 269 kts | 163° |
| 2026-05-09 10:19 | 41.18023 | -72.78381 | 7140 ft | 274 kts | 162° |
| 2026-05-09 10:20 | 41.16242 | -72.77436 | 7920 ft | 278 kts | 162° |
| 2026-05-09 10:20 | 41.14436 | -72.76467 | 8706 ft | 280 kts | 162° |
| 2026-05-09 10:20 | 41.12616 | -72.75489 | 9387 ft | 286 kts | 162° |
| 2026-05-09 10:20 | 41.10763 | -72.74484 | 10097 ft | 289 kts | 163° |
| 2026-05-09 10:21 | 41.08851 | -72.73451 | 10514 ft | 308 kts | 163° |
| 2026-05-09 10:21 | 41.06790 | -72.72338 | 10697 ft | 331 kts | 163° |
| 2026-05-09 10:21 | 41.04580 | -72.71144 | 10873 ft | 354 kts | 162° |
| 2026-05-09 10:21 | 41.02234 | -72.69872 | 11043 ft | 375 kts | 162° |
| 2026-05-09 10:22 | 40.99773 | -72.68533 | 11375 ft | 388 kts | 162° |
| 2026-05-09 10:22 | 40.97258 | -72.67161 | 11956 ft | 393 kts | 162° |
| 2026-05-09 10:22 | 40.94714 | -72.65777 | 12585 ft | 397 kts | 163° |
| 2026-05-09 10:22 | 40.92145 | -72.64380 | 13221 ft | 401 kts | 163° |
| 2026-05-09 10:23 | 40.89556 | -72.62974 | 13842 ft | 404 kts | 163° |
| 2026-05-09 10:23 | 40.86941 | -72.61556 | 14427 ft | 408 kts | 163° |
| 2026-05-09 10:23 | 40.84303 | -72.60128 | 14993 ft | 412 kts | 163° |
| 2026-05-09 10:23 | 40.81632 | -72.58686 | 15547 ft | 416 kts | 164° |
| 2026-05-09 10:24 | 40.78972 | -72.57253 | 16054 ft | 420 kts | 164° |
| 2026-05-09 10:24 | 40.76193 | -72.56171 | 16531 ft | 412 kts | 181° |
| 2026-05-09 10:24 | 40.73397 | -72.56420 | 17100 ft | 399 kts | 200° |
| 2026-05-09 10:24 | 40.70824 | -72.57644 | 17676 ft | 390 kts | 213° |
| 2026-05-09 10:25 | 40.68623 | -72.59643 | 18236 ft | 382 kts | 225° |
| 2026-05-09 10:25 | 40.66598 | -72.61924 | 18736 ft | 385 kts | 226° |
| 2026-05-09 10:25 | 40.64573 | -72.64259 | 19180 ft | 388 kts | 226° |
| 2026-05-09 10:25 | 40.62538 | -72.66613 | 19651 ft | 391 kts | 226° |
| 2026-05-09 10:26 | 40.61152 | -72.68208 | 19950 ft | 393 kts | 226° |
| 2026-05-09 10:26 | 40.59080 | -72.70579 | 20401 ft | 396 kts | 226° |
| 2026-05-09 10:26 | 40.57020 | -72.72920 | 20835 ft | 398 kts | 226° |
| 2026-05-09 10:26 | 40.54917 | -72.75299 | 21256 ft | 400 kts | 226° |
| 2026-05-09 10:27 | 40.52794 | -72.77693 | 21647 ft | 403 kts | 226° |
| 2026-05-09 10:27 | 40.50656 | -72.80100 | 22043 ft | 405 kts | 226° |
| 2026-05-09 10:27 | 40.48508 | -72.82513 | 22441 ft | 408 kts | 226° |
| 2026-05-09 10:27 | 40.46349 | -72.84936 | 22803 ft | 410 kts | 226° |
| 2026-05-09 10:28 | 40.44175 | -72.87374 | 23141 ft | 412 kts | 226° |
| 2026-05-09 10:28 | 40.41990 | -72.89822 | 23507 ft | 414 kts | 226° |
| 2026-05-09 10:28 | 40.39796 | -72.92278 | 23872 ft | 415 kts | 226° |
| 2026-05-09 10:28 | 40.37594 | -72.94740 | 24193 ft | 417 kts | 227° |
| 2026-05-09 10:29 | 40.35377 | -72.97218 | 24506 ft | 419 kts | 226° |
| 2026-05-09 10:29 | 40.33149 | -72.99706 | 24792 ft | 422 kts | 227° |
| 2026-05-09 10:29 | 40.30909 | -73.02207 | 25075 ft | 424 kts | 227° |
| 2026-05-09 10:29 | 40.28657 | -73.04717 | 25384 ft | 426 kts | 227° |
| 2026-05-09 10:30 | 40.26394 | -73.07236 | 25730 ft | 426 kts | 227° |
| 2026-05-09 10:30 | 40.24131 | -73.09752 | 26012 ft | 428 kts | 227° |
| 2026-05-09 10:30 | 40.21857 | -73.12279 | 26263 ft | 430 kts | 227° |
| 2026-05-09 10:30 | 40.19570 | -73.14821 | 26503 ft | 432 kts | 227° |
| 2026-05-09 10:31 | 40.17277 | -73.17365 | 26792 ft | 432 kts | 227° |
| 2026-05-09 10:31 | 40.14985 | -73.19905 | 27101 ft | 432 kts | 227° |
| 2026-05-09 10:31 | 40.12700 | -73.22435 | 27498 ft | 429 kts | 227° |
| 2026-05-09 10:31 | 40.10424 | -73.24953 | 27857 ft | 428 kts | 227° |
| 2026-05-09 10:32 | 40.08156 | -73.27466 | 28183 ft | 427 kts | 227° |
| 2026-05-09 10:32 | 40.05902 | -73.29987 | 28515 ft | 426 kts | 227° |
| 2026-05-09 10:32 | 40.03662 | -73.32500 | 28892 ft | 424 kts | 227° |
| 2026-05-09 10:32 | 40.01428 | -73.35009 | 29247 ft | 422 kts | 227° |
| 2026-05-09 10:33 | 39.99205 | -73.37502 | 29579 ft | 421 kts | 228° |
| 2026-05-09 10:33 | 39.96987 | -73.39987 | 29893 ft | 420 kts | 228° |
| 2026-05-09 10:33 | 39.94772 | -73.42465 | 30214 ft | 419 kts | 228° |
| 2026-05-09 10:33 | 39.92562 | -73.44933 | 30549 ft | 418 kts | 228° |
| 2026-05-09 10:34 | 39.90358 | -73.47393 | 30901 ft | 416 kts | 228° |
| 2026-05-09 10:34 | 39.85967 | -73.52287 | 31447 ft | 416 kts | 228° |
| 2026-05-09 10:34 | 39.83774 | -73.54727 | 31753 ft | 414 kts | 228° |
| 2026-05-09 10:35 | 39.81589 | -73.57155 | 32086 ft | 412 kts | 229° |
| 2026-05-09 10:35 | 39.79411 | -73.59572 | 32328 ft | 412 kts | 229° |
| 2026-05-09 10:35 | 39.77231 | -73.61991 | 32585 ft | 412 kts | 229° |
| 2026-05-09 10:35 | 39.75057 | -73.64401 | 32879 ft | 410 kts | 229° |
| 2026-05-09 10:36 | 39.72891 | -73.66799 | 33176 ft | 408 kts | 229° |
| 2026-05-09 10:36 | 39.70732 | -73.69189 | 33459 ft | 407 kts | 229° |
| 2026-05-09 10:36 | 39.68576 | -73.71575 | 33664 ft | 407 kts | 229° |
| 2026-05-09 10:36 | 39.66421 | -73.73959 | 33904 ft | 407 kts | 229° |
| 2026-05-09 10:37 | 39.64270 | -73.76335 | 34172 ft | 405 kts | 229° |
| 2026-05-09 10:37 | 39.62131 | -73.78694 | 34447 ft | 403 kts | 229° |
| 2026-05-09 10:37 | 39.59998 | -73.81046 | 34700 ft | 402 kts | 229° |
| 2026-05-09 10:37 | 39.57869 | -73.83392 | 34947 ft | 401 kts | 230° |
| 2026-05-09 10:38 | 39.55748 | -73.85727 | 35196 ft | 399 kts | 230° |
| 2026-05-09 10:38 | 39.53636 | -73.88047 | 35449 ft | 397 kts | 230° |
| 2026-05-09 10:38 | 39.51526 | -73.90367 | 35616 ft | 398 kts | 230° |
| 2026-05-09 10:38 | 39.49422 | -73.92682 | 35843 ft | 396 kts | 230° |
| 2026-05-09 10:39 | 39.47330 | -73.94978 | 36125 ft | 393 kts | 230° |
| 2026-05-09 10:39 | 39.45249 | -73.97261 | 36360 ft | 392 kts | 230° |
| 2026-05-09 10:39 | 39.43171 | -73.99537 | 36542 ft | 391 kts | 230° |
| 2026-05-09 10:39 | 39.41102 | -74.01804 | 36759 ft | 389 kts | 230° |
| 2026-05-09 10:40 | 39.39039 | -74.04059 | 37011 ft | 386 kts | 230° |
| 2026-05-09 10:40 | 39.37002 | -74.06281 | 37424 ft | 379 kts | 230° |
| 2026-05-09 10:40 | 39.35005 | -74.08460 | 37799 ft | 374 kts | 230° |
| 2026-05-09 10:40 | 39.33025 | -74.10626 | 37956 ft | 373 kts | 230° |
| 2026-05-09 10:41 | 39.29099 | -74.14920 | 37988 ft | 368 kts | 230° |
| 2026-05-09 10:41 | 39.25219 | -74.19163 | 38003 ft | 369 kts | 230° |
| 2026-05-09 10:42 | 39.21266 | -74.23475 | 38003 ft | 370 kts | 230° |
| 2026-05-09 10:42 | 39.17349 | -74.27737 | 38010 ft | 371 kts | 230° |
| 2026-05-09 10:43 | 39.13394 | -74.32031 | 38003 ft | 372 kts | 230° |
| 2026-05-09 10:43 | 39.09436 | -74.36324 | 37999 ft | 372 kts | 230° |
| 2026-05-09 10:44 | 39.05483 | -74.40603 | 37998 ft | 371 kts | 230° |
| 2026-05-09 10:44 | 39.01542 | -74.44864 | 38002 ft | 369 kts | 230° |
| 2026-05-09 10:46 | 38.91806 | -74.55493 | 38011 ft | 363 kts | 232° |
| 2026-05-09 10:46 | 38.88099 | -74.59878 | 38008 ft | 362 kts | 232° |
| 2026-05-09 10:47 | 38.84395 | -74.64246 | 38011 ft | 361 kts | 232° |
| 2026-05-09 10:47 | 38.80713 | -74.68554 | 38010 ft | 360 kts | 232° |
| 2026-05-09 10:48 | 38.76983 | -74.72902 | 38011 ft | 360 kts | 232° |
| 2026-05-09 10:48 | 38.73218 | -74.77138 | 38009 ft | 362 kts | 230° |
| 2026-05-09 10:49 | 38.69318 | -74.81177 | 38007 ft | 363 kts | 229° |
| 2026-05-09 10:49 | 38.65391 | -74.85231 | 38017 ft | 362 kts | 229° |
| 2026-05-09 10:50 | 38.61475 | -74.89295 | 38018 ft | 363 kts | 229° |
| 2026-05-09 10:50 | 38.57557 | -74.93368 | 38022 ft | 363 kts | 229° |
| 2026-05-09 10:51 | 38.53637 | -74.97435 | 38018 ft | 363 kts | 229° |
| 2026-05-09 10:51 | 38.49810 | -75.01601 | 38020 ft | 361 kts | 231° |
| 2026-05-09 10:52 | 38.46010 | -75.05801 | 38019 ft | 364 kts | 229° |
| 2026-05-09 10:52 | 38.41949 | -75.09714 | 38027 ft | 367 kts | 227° |
| 2026-05-09 10:53 | 38.37835 | -75.13569 | 38027 ft | 367 kts | 227° |
| 2026-05-09 10:53 | 38.33731 | -75.17441 | 38029 ft | 367 kts | 227° |
| 2026-05-09 10:54 | 38.29635 | -75.21320 | 38025 ft | 367 kts | 227° |
| 2026-05-09 10:54 | 38.25535 | -75.25203 | 38031 ft | 368 kts | 227° |
| 2026-05-09 10:55 | 38.21424 | -75.29095 | 38031 ft | 369 kts | 227° |
| 2026-05-09 10:55 | 38.17328 | -75.32960 | 38029 ft | 369 kts | 227° |
| 2026-05-09 10:56 | 38.13207 | -75.36850 | 38028 ft | 369 kts | 227° |
| 2026-05-09 10:56 | 38.09077 | -75.40745 | 38028 ft | 370 kts | 227° |
| 2026-05-09 10:57 | 38.04939 | -75.44635 | 38030 ft | 370 kts | 226° |
| 2026-05-09 10:57 | 38.00680 | -75.48375 | 38019 ft | 373 kts | 225° |
| 2026-05-09 10:58 | 37.96381 | -75.52065 | 38030 ft | 373 kts | 225° |
| 2026-05-09 10:58 | 37.92098 | -75.55761 | 38023 ft | 372 kts | 225° |
| 2026-05-09 10:59 | 37.87830 | -75.59457 | 38028 ft | 372 kts | 225° |
| 2026-05-09 10:59 | 37.83545 | -75.63125 | 38027 ft | 374 kts | 223° |
| 2026-05-09 11:00 | 37.79078 | -75.66534 | 38029 ft | 376 kts | 221° |
| 2026-05-09 11:00 | 37.74572 | -75.69891 | 38030 ft | 376 kts | 221° |
| 2026-05-09 11:01 | 37.70076 | -75.73264 | 38033 ft | 376 kts | 221° |
| 2026-05-09 11:01 | 37.65587 | -75.76641 | 38038 ft | 376 kts | 221° |
| 2026-05-09 11:02 | 37.61095 | -75.80021 | 38036 ft | 376 kts | 221° |
| 2026-05-09 11:02 | 37.56601 | -75.83397 | 38035 ft | 376 kts | 222° |
| 2026-05-09 11:03 | 37.52164 | -75.86848 | 38035 ft | 371 kts | 225° |
| 2026-05-09 11:03 | 37.47953 | -75.90583 | 38036 ft | 370 kts | 225° |
| 2026-05-09 11:04 | 37.43751 | -75.94344 | 38026 ft | 370 kts | 226° |
| 2026-05-09 11:04 | 37.39573 | -75.98066 | 38027 ft | 371 kts | 225° |
| 2026-05-09 11:05 | 37.35328 | -76.01829 | 38030 ft | 371 kts | 225° |
| 2026-05-09 11:05 | 37.31133 | -76.05540 | 38027 ft | 371 kts | 225° |
| 2026-05-09 11:06 | 37.26905 | -76.09271 | 38034 ft | 372 kts | 225° |
| 2026-05-09 11:06 | 37.22669 | -76.13009 | 38028 ft | 372 kts | 225° |
| 2026-05-09 11:07 | 37.18424 | -76.16750 | 38019 ft | 373 kts | 225° |
| 2026-05-09 11:07 | 37.14177 | -76.20486 | 38021 ft | 373 kts | 225° |
| 2026-05-09 11:08 | 37.09927 | -76.24218 | 38019 ft | 373 kts | 225° |
| 2026-05-09 11:08 | 37.05671 | -76.27951 | 38020 ft | 373 kts | 225° |
| 2026-05-09 11:09 | 37.01415 | -76.31675 | 38021 ft | 373 kts | 225° |
| 2026-05-09 11:09 | 36.97162 | -76.35394 | 38025 ft | 373 kts | 225° |
| 2026-05-09 11:10 | 36.92909 | -76.39109 | 38028 ft | 373 kts | 225° |
| 2026-05-09 11:10 | 36.88654 | -76.42821 | 38032 ft | 373 kts | 225° |
| 2026-05-09 11:11 | 36.84392 | -76.46533 | 38036 ft | 374 kts | 225° |
| 2026-05-09 11:11 | 36.80127 | -76.50242 | 38037 ft | 374 kts | 225° |
| 2026-05-09 11:12 | 36.75859 | -76.53949 | 38038 ft | 374 kts | 225° |
| 2026-05-09 11:12 | 36.71586 | -76.57654 | 38040 ft | 374 kts | 225° |
| 2026-05-09 11:13 | 36.67313 | -76.61355 | 38044 ft | 374 kts | 225° |
| 2026-05-09 11:13 | 36.63759 | -76.64431 | 38038 ft | 374 kts | 225° |
| 2026-05-09 11:14 | 36.59478 | -76.68130 | 38038 ft | 375 kts | 225° |
| 2026-05-09 11:14 | 36.55193 | -76.71826 | 38032 ft | 375 kts | 225° |
| 2026-05-09 11:15 | 36.50910 | -76.75514 | 38038 ft | 374 kts | 225° |
| 2026-05-09 11:15 | 36.46638 | -76.79193 | 38038 ft | 374 kts | 225° |
| 2026-05-09 11:16 | 36.42362 | -76.82868 | 38038 ft | 373 kts | 225° |
| 2026-05-09 11:16 | 36.38088 | -76.86536 | 38037 ft | 373 kts | 225° |
| 2026-05-09 11:17 | 36.33837 | -76.90217 | 38039 ft | 372 kts | 226° |
| 2026-05-09 11:17 | 36.29611 | -76.93917 | 38034 ft | 372 kts | 226° |
| 2026-05-09 11:18 | 36.25389 | -76.97610 | 38038 ft | 371 kts | 226° |
| 2026-05-09 11:18 | 36.21196 | -77.01268 | 38037 ft | 371 kts | 226° |
| 2026-05-09 11:19 | 36.16977 | -77.04941 | 38037 ft | 371 kts | 226° |
| 2026-05-09 11:19 | 36.12753 | -77.08617 | 38039 ft | 371 kts | 226° |
| 2026-05-09 11:20 | 36.08528 | -77.12282 | 38037 ft | 371 kts | 226° |
| 2026-05-09 11:20 | 36.04306 | -77.15942 | 38036 ft | 371 kts | 226° |
| 2026-05-09 11:21 | 36.00082 | -77.19603 | 38028 ft | 371 kts | 226° |
| 2026-05-09 11:21 | 35.95854 | -77.23260 | 38026 ft | 371 kts | 226° |
| 2026-05-09 11:22 | 35.91653 | -77.26954 | 38026 ft | 369 kts | 228° |
| 2026-05-09 11:22 | 35.87609 | -77.30843 | 38029 ft | 368 kts | 229° |
| 2026-05-09 11:23 | 35.83592 | -77.34750 | 38028 ft | 368 kts | 229° |
| 2026-05-09 11:23 | 35.79555 | -77.38650 | 38029 ft | 368 kts | 229° |
| 2026-05-09 11:24 | 35.75518 | -77.42535 | 38018 ft | 369 kts | 229° |
| 2026-05-09 11:24 | 35.71474 | -77.46419 | 38021 ft | 369 kts | 228° |
| 2026-05-09 11:25 | 35.67427 | -77.50301 | 38017 ft | 369 kts | 228° |
| 2026-05-09 11:25 | 35.63375 | -77.54181 | 38018 ft | 369 kts | 228° |
| 2026-05-09 11:26 | 35.59324 | -77.58055 | 38020 ft | 369 kts | 228° |
| 2026-05-09 11:26 | 35.55271 | -77.61926 | 38021 ft | 369 kts | 228° |
| 2026-05-09 11:27 | 35.51216 | -77.65792 | 38025 ft | 369 kts | 228° |
| 2026-05-09 11:27 | 35.47167 | -77.69651 | 38028 ft | 369 kts | 228° |
| 2026-05-09 11:28 | 35.43116 | -77.73513 | 38026 ft | 369 kts | 229° |
| 2026-05-09 11:28 | 35.39055 | -77.77372 | 38031 ft | 369 kts | 229° |
| 2026-05-09 11:29 | 35.34996 | -77.81226 | 38030 ft | 369 kts | 228° |
| 2026-05-09 11:29 | 35.30932 | -77.85082 | 38028 ft | 370 kts | 229° |
| 2026-05-09 11:30 | 35.26860 | -77.88940 | 38026 ft | 370 kts | 228° |
| 2026-05-09 11:30 | 35.22786 | -77.92795 | 38013 ft | 370 kts | 228° |
| 2026-05-09 11:31 | 35.18711 | -77.96643 | 38018 ft | 370 kts | 229° |
| 2026-05-09 11:31 | 35.14633 | -78.00494 | 38018 ft | 371 kts | 229° |
| 2026-05-09 11:32 | 35.10553 | -78.04340 | 38021 ft | 370 kts | 229° |
| 2026-05-09 11:32 | 35.06471 | -78.08182 | 38014 ft | 371 kts | 229° |
| 2026-05-09 11:33 | 35.02417 | -78.11993 | 38017 ft | 370 kts | 229° |
| 2026-05-09 11:33 | 34.96297 | -78.17738 | 38019 ft | 370 kts | 229° |
| 2026-05-09 11:34 | 34.92210 | -78.21568 | 38022 ft | 371 kts | 229° |
| 2026-05-09 11:34 | 34.88118 | -78.25396 | 38028 ft | 371 kts | 229° |
| 2026-05-09 11:35 | 34.84017 | -78.29231 | 38028 ft | 372 kts | 229° |
| 2026-05-09 11:35 | 34.79909 | -78.33064 | 38030 ft | 372 kts | 229° |
| 2026-05-09 11:36 | 34.75793 | -78.36901 | 38017 ft | 372 kts | 229° |
| 2026-05-09 11:36 | 34.71678 | -78.40732 | 38016 ft | 373 kts | 229° |
| 2026-05-09 11:37 | 34.67561 | -78.44559 | 38018 ft | 373 kts | 229° |
| 2026-05-09 11:37 | 34.63439 | -78.48387 | 38020 ft | 373 kts | 229° |
| 2026-05-09 11:38 | 34.59312 | -78.52217 | 38020 ft | 374 kts | 229° |
| 2026-05-09 11:38 | 34.55177 | -78.56046 | 38018 ft | 374 kts | 229° |
| 2026-05-09 11:39 | 34.51045 | -78.59870 | 38021 ft | 374 kts | 229° |
| 2026-05-09 11:40 | 34.44843 | -78.65600 | 38016 ft | 373 kts | 229° |
| 2026-05-09 11:40 | 34.40710 | -78.69410 | 38018 ft | 374 kts | 229° |
| 2026-05-09 11:41 | 34.36456 | -78.73086 | 38031 ft | 377 kts | 226° |
| 2026-05-09 11:41 | 34.32112 | -78.76650 | 38027 ft | 377 kts | 226° |
| 2026-05-09 11:42 | 34.27789 | -78.80229 | 38025 ft | 376 kts | 227° |
| 2026-05-09 11:42 | 34.23477 | -78.83819 | 38027 ft | 376 kts | 227° |
| 2026-05-09 11:43 | 34.19193 | -78.87385 | 38020 ft | 376 kts | 227° |
| 2026-05-09 11:43 | 34.14859 | -78.90996 | 38022 ft | 376 kts | 227° |
| 2026-05-09 11:44 | 34.10584 | -78.94551 | 38016 ft | 376 kts | 227° |
| 2026-05-09 11:44 | 34.06278 | -78.98129 | 38013 ft | 376 kts | 227° |
| 2026-05-09 11:45 | 34.01971 | -79.01703 | 38011 ft | 376 kts | 227° |
| 2026-05-09 11:45 | 33.97666 | -79.05272 | 38003 ft | 376 kts | 227° |
| 2026-05-09 11:46 | 33.93357 | -79.08843 | 38018 ft | 376 kts | 227° |
| 2026-05-09 11:46 | 33.89032 | -79.12416 | 38018 ft | 377 kts | 227° |
| 2026-05-09 11:47 | 33.84700 | -79.15997 | 38011 ft | 378 kts | 227° |
| 2026-05-09 11:47 | 33.80357 | -79.19583 | 38011 ft | 379 kts | 227° |
| 2026-05-09 11:48 | 33.76006 | -79.23164 | 38003 ft | 379 kts | 227° |
| 2026-05-09 11:48 | 33.71650 | -79.26749 | 38011 ft | 380 kts | 227° |
| 2026-05-09 11:49 | 33.67288 | -79.30339 | 38009 ft | 380 kts | 227° |
| 2026-05-09 11:49 | 33.62974 | -79.33978 | 38001 ft | 378 kts | 228° |
| 2026-05-09 11:50 | 33.58716 | -79.37607 | 38013 ft | 377 kts | 228° |
| 2026-05-09 11:50 | 33.54436 | -79.41248 | 38002 ft | 377 kts | 228° |
| 2026-05-09 11:51 | 33.50148 | -79.44877 | 38004 ft | 377 kts | 228° |
| 2026-05-09 11:51 | 33.45866 | -79.48503 | 38007 ft | 378 kts | 228° |
| 2026-05-09 11:52 | 33.41576 | -79.52127 | 38007 ft | 376 kts | 228° |
| 2026-05-09 11:52 | 33.37301 | -79.55740 | 38012 ft | 376 kts | 228° |
| 2026-05-09 11:53 | 33.33019 | -79.59347 | 38010 ft | 377 kts | 228° |
| 2026-05-09 11:53 | 33.28732 | -79.62954 | 38007 ft | 377 kts | 227° |
| 2026-05-09 11:54 | 33.24446 | -79.66564 | 38011 ft | 377 kts | 227° |
| 2026-05-09 11:54 | 33.20147 | -79.70169 | 38002 ft | 378 kts | 227° |
| 2026-05-09 11:55 | 33.15847 | -79.73775 | 38011 ft | 378 kts | 227° |
| 2026-05-09 11:56 | 33.02913 | -79.84596 | 38003 ft | 379 kts | 227° |
| 2026-05-09 11:57 | 32.98587 | -79.88207 | 38001 ft | 380 kts | 227° |
| 2026-05-09 11:57 | 32.94284 | -79.91795 | 37996 ft | 380 kts | 227° |
| 2026-05-09 11:58 | 32.89948 | -79.95404 | 38005 ft | 380 kts | 227° |
| 2026-05-09 11:58 | 32.85613 | -79.99009 | 38000 ft | 380 kts | 227° |
| 2026-05-09 11:59 | 32.81270 | -80.02616 | 38003 ft | 381 kts | 227° |
| 2026-05-09 11:59 | 32.76928 | -80.06218 | 37997 ft | 381 kts | 227° |
| 2026-05-09 12:00 | 32.72581 | -80.09818 | 38002 ft | 381 kts | 227° |
| 2026-05-09 12:00 | 32.68229 | -80.13420 | 37994 ft | 382 kts | 227° |
| 2026-05-09 12:01 | 32.63872 | -80.17022 | 38001 ft | 382 kts | 227° |
| 2026-05-09 12:01 | 32.59508 | -80.20626 | 38001 ft | 383 kts | 227° |
| 2026-05-09 12:02 | 32.55876 | -80.23624 | 38000 ft | 383 kts | 227° |
| 2026-05-09 12:02 | 32.51470 | -80.27206 | 37999 ft | 388 kts | 224° |
| 2026-05-09 12:03 | 32.46672 | -80.30321 | 37997 ft | 395 kts | 221° |
| 2026-05-09 12:03 | 32.41798 | -80.33347 | 38000 ft | 395 kts | 221° |
| 2026-05-09 12:04 | 32.36938 | -80.36383 | 38001 ft | 395 kts | 221° |
| 2026-05-09 12:04 | 32.32086 | -80.39436 | 38001 ft | 395 kts | 221° |
| 2026-05-09 12:05 | 32.27238 | -80.42492 | 37998 ft | 395 kts | 221° |
| 2026-05-09 12:05 | 32.22393 | -80.45545 | 38001 ft | 395 kts | 221° |
| 2026-05-09 12:06 | 32.17549 | -80.48595 | 37999 ft | 394 kts | 221° |
| 2026-05-09 12:06 | 32.12710 | -80.51637 | 38000 ft | 394 kts | 221° |
| 2026-05-09 12:07 | 32.07876 | -80.54671 | 38001 ft | 394 kts | 221° |
| 2026-05-09 12:07 | 32.03044 | -80.57702 | 37999 ft | 393 kts | 221° |
| 2026-05-09 12:08 | 31.98217 | -80.60726 | 37996 ft | 393 kts | 221° |
| 2026-05-09 12:08 | 31.93387 | -80.63745 | 38001 ft | 393 kts | 221° |
| 2026-05-09 12:09 | 31.88566 | -80.66761 | 38000 ft | 393 kts | 221° |
| 2026-05-09 12:09 | 31.83738 | -80.69778 | 38001 ft | 393 kts | 221° |
| 2026-05-09 12:10 | 31.74042 | -80.75820 | 37987 ft | 395 kts | 220° |
| 2026-05-09 12:11 | 31.69175 | -80.78846 | 37983 ft | 396 kts | 220° |
| 2026-05-09 12:11 | 31.64334 | -80.81857 | 37981 ft | 397 kts | 220° |
| 2026-05-09 12:12 | 31.59451 | -80.84885 | 37984 ft | 397 kts | 220° |
| 2026-05-09 12:12 | 31.54553 | -80.87920 | 37983 ft | 398 kts | 220° |
| 2026-05-09 12:13 | 31.49658 | -80.90951 | 37985 ft | 398 kts | 220° |
| 2026-05-09 12:13 | 31.44757 | -80.93980 | 37994 ft | 398 kts | 220° |
| 2026-05-09 12:14 | 31.39854 | -80.97008 | 37989 ft | 399 kts | 220° |
| 2026-05-09 12:14 | 31.34946 | -81.00036 | 37998 ft | 399 kts | 220° |
| 2026-05-09 12:15 | 31.30042 | -81.03056 | 37999 ft | 398 kts | 220° |
| 2026-05-09 12:15 | 31.24790 | -81.05500 | 38006 ft | 419 kts | 207° |
| 2026-05-09 12:15 | 31.21893 | -81.06161 | 37992 ft | 432 kts | 200° |
| 2026-05-09 12:16 | 31.18842 | -81.06360 | 38011 ft | 442 kts | 194° |
| 2026-05-09 12:16 | 31.12675 | -81.06441 | 38000 ft | 444 kts | 193° |